Time;durP1;ratioP1;P1;durP2;ratioP2;P2;SDS_P1;SDS_P2;PMS_P1;PMS_P2;Temp;Humidity;BMP_temperature;BMP_pressure;BME280_temperature;BME280_humidity;BME280_pressure;Samples;Min_cycle;Max_cycle;Signal;HPM_P1;HPM_P2
2023/12/10 00:01:02;;;;;;;;;5.25;1.00;;;;;12.80;77.92;100679.69;5038494;28;45433;-66
2023/12/10 00:03:28;;;;;;;;;5.75;2.00;;;;;12.78;78.23;100668.19;5039161;28;45610;-66
2023/12/10 00:05:53;;;;;;;;;3.00;1.00;;;;;12.79;77.69;100694.88;5054854;28;54600;-66
2023/12/10 00:08:20;;;;;;;;;5.25;2.00;;;;;12.73;77.84;100679.09;5031234;28;63120;-66
2023/12/10 00:10:45;;;;;;;;;1.50;1.25;;;;;12.76;78.24;100700.38;5052304;28;45399;-66
2023/12/10 00:13:10;;;;;;;;;2.50;1.25;;;;;12.75;77.91;100687.06;5020728;28;45449;-66
2023/12/10 00:15:37;;;;;;;;;2.00;1.50;;;;;12.58;78.13;100679.72;5037676;28;64702;-66
2023/12/10 00:18:03;;;;;;;;;2.00;2.00;;;;;12.70;78.07;100713.16;5038812;28;46077;-66
2023/12/10 00:20:28;;;;;;;;;5.50;2.00;;;;;12.64;78.13;100705.38;5052250;28;45521;-66
2023/12/10 00:22:53;;;;;;;;;4.00;2.75;;;;;12.78;78.23;100719.06;5056506;28;60518;-66
2023/12/10 00:25:19;;;;;;;;;3.75;2.00;;;;;12.71;77.78;100701.50;5039498;28;65817;-66
2023/12/10 00:27:44;;;;;;;;;1.00;1.00;;;;;12.82;78.09;100709.09;5043561;28;45324;-66
2023/12/10 00:30:10;;;;;;;;;1.50;1.00;;;;;12.77;78.04;100703.94;5035983;28;45356;-66
2023/12/10 00:32:36;;;;;;;;;5.00;1.00;;;;;12.77;77.86;100709.28;5044657;28;45433;-66
2023/12/10 00:35:01;;;;;;;;;3.50;1.75;;;;;12.75;77.76;100705.81;5051656;28;45963;-66
2023/12/10 00:37:26;;;;;;;;;3.50;1.00;;;;;12.70;78.12;100710.47;5037623;28;56340;-66
2023/12/10 00:39:51;;;;;;;;;1.75;1.00;;;;;12.67;77.87;100705.25;5061146;28;45509;-66
2023/12/10 00:42:18;;;;;;;;;4.50;1.00;;;;;12.76;77.84;100729.84;5062859;28;45464;-66
2023/12/10 00:44:44;;;;;;;;;2.25;1.75;;;;;12.67;77.61;100716.81;5051510;28;45483;-66
2023/12/10 00:47:09;;;;;;;;;2.25;1.75;;;;;12.71;77.84;100734.53;5038423;28;45470;-66
2023/12/10 00:49:34;;;;;;;;;5.75;3.00;;;;;12.71;77.84;100733.63;5021003;28;51008;-66
2023/12/10 00:52:00;;;;;;;;;4.00;1.00;;;;;12.79;78.02;100736.88;5050420;28;64366;-66
2023/12/10 00:54:25;;;;;;;;;3.75;1.00;;;;;12.77;77.91;100734.25;5033168;28;47239;-66
2023/12/10 00:56:50;;;;;;;;;3.00;2.00;;;;;12.70;77.90;100732.78;5043390;28;45320;-66
2023/12/10 00:59:15;;;;;;;;;2.00;1.75;;;;;12.78;78.13;100743.19;5026741;28;45543;-66
2023/12/10 01:01:41;;;;;;;;;1.75;1.25;;;;;12.74;77.98;100744.22;5039014;28;45520;-66
2023/12/10 01:04:06;;;;;;;;;5.25;2.00;;;;;12.58;77.80;100717.22;5038647;28;48066;-66
2023/12/10 01:06:32;;;;;;;;;3.00;1.50;;;;;12.75;77.93;100751.34;5038177;28;45363;-66
2023/12/10 01:08:57;;;;;;;;;4.25;1.25;;;;;12.74;78.12;100760.28;5038022;28;45300;-66
2023/12/10 01:11:22;;;;;;;;;3.50;1.50;;;;;12.73;78.08;100759.44;5038102;28;45399;-66
2023/12/10 01:13:47;;;;;;;;;3.50;2.50;;;;;12.71;78.17;100764.00;5033295;28;59839;-66
2023/12/10 01:16:16;;;;;;;;;4.00;2.00;;;;;12.72;77.96;100765.72;5050423;28;61572;-66
2023/12/10 01:18:42;;;;;;;;;3.25;2.25;;;;;12.65;77.97;100763.38;5038660;28;45477;-65
2023/12/10 01:21:10;;;;;;;;;3.00;2.50;;;;;12.66;77.66;100776.66;5050553;28;45386;-66
2023/12/10 01:23:38;;;;;;;;;2.75;1.25;;;;;12.68;78.06;100795.34;5034318;28;47159;-66
2023/12/10 01:26:06;;;;;;;;;3.25;1.25;;;;;12.56;78.09;100792.25;5045378;28;45272;-66
2023/12/10 01:28:31;;;;;;;;;1.00;1.00;;;;;12.68;77.48;100808.75;5059703;28;45467;-66
2023/12/10 01:30:56;;;;;;;;;3.25;1.00;;;;;12.55;78.09;100790.50;5041275;28;45487;-65
2023/12/10 01:33:22;;;;;;;;;3.00;2.25;;;;;12.61;78.23;100818.81;5055468;28;45454;-66
2023/12/10 01:35:47;;;;;;;;;3.00;1.25;;;;;12.59;78.05;100823.38;5040555;28;65012;-66
2023/12/10 01:38:12;;;;;;;;;4.00;1.75;;;;;12.56;78.10;100829.75;5046588;28;45369;-66
2023/12/10 01:40:38;;;;;;;;;1.00;1.00;;;;;12.54;78.31;100826.22;5053099;28;45351;-66
2023/12/10 01:43:06;;;;;;;;;3.00;2.25;;;;;12.53;78.68;100837.00;5040981;28;47028;-66
2023/12/10 01:45:32;;;;;;;;;3.50;1.75;;;;;12.50;78.37;100826.44;5053647;28;45440;-66
2023/12/10 01:47:58;;;;;;;;;1.00;1.00;;;;;12.61;78.41;100837.56;5041024;28;45376;-66
2023/12/10 01:50:24;;;;;;;;;5.00;1.25;;;;;12.51;78.33;100820.13;5041256;28;45260;-66
2023/12/10 01:52:49;;;;;;;;;4.25;2.00;;;;;12.58;78.25;100843.94;5040733;28;45295;-66
2023/12/10 01:55:16;;;;;;;;;3.75;2.25;;;;;12.54;78.42;100828.91;5063230;28;45280;-66
2023/12/10 01:57:42;;;;;;;;;2.75;1.00;;;;;12.54;78.35;100828.91;5045502;28;45608;-66
2023/12/10 02:00:08;;;;;;;;;2.50;1.00;;;;;12.50;78.75;100827.28;5033452;28;45711;-66
2023/12/10 02:02:35;;;;;;;;;2.00;1.25;;;;;12.40;78.45;100809.84;5037690;28;46514;-66
2023/12/10 02:05:08;;;;;;;;;3.50;1.50;;;;;12.53;78.72;100831.63;5052413;28;45453;-66
2023/12/10 02:07:34;;;;;;;;;3.00;1.75;;;;;12.54;78.71;100836.06;5039178;28;45433;-66
2023/12/10 02:09:59;;;;;;;;;1.00;0.25;;;;;12.57;78.54;100831.47;5050995;28;45379;-66
2023/12/10 02:12:27;;;;;;;;;3.50;2.00;;;;;12.38;78.79;100811.72;5040437;28;45412;-66
2023/12/10 02:14:53;;;;;;;;;2.25;2.00;;;;;12.52;78.62;100841.50;5061007;28;45583;-66
2023/12/10 02:17:18;;;;;;;;;1.00;1.00;;;;;12.51;78.80;100839.75;5060319;28;45257;-66
2023/12/10 02:19:43;;;;;;;;;0.50;0.50;;;;;12.46;78.71;100832.81;5049982;28;66344;-66
2023/12/10 02:22:13;;;;;;;;;3.00;1.00;;;;;12.52;78.75;100862.91;5024947;28;65964;-66
2023/12/10 02:24:52;;;;;;;;;3.25;1.00;;;;;12.44;78.71;100854.28;5041688;28;45559;-66
2023/12/10 02:27:19;;;;;;;;;3.75;2.75;;;;;12.46;78.94;100857.78;5046651;28;45379;-66
2023/12/10 02:29:44;;;;;;;;;4.75;2.00;;;;;12.35;78.68;100841.28;5058656;28;45467;-66
2023/12/10 02:32:09;;;;;;;;;3.00;2.00;;;;;12.38;78.88;100850.06;5045680;28;57880;-66
2023/12/10 02:34:35;;;;;;;;;4.00;1.00;;;;;12.35;78.90;100841.28;5022718;28;45574;-66
2023/12/10 02:37:01;;;;;;;;;3.00;1.00;;;;;12.40;78.99;100848.19;5053743;28;45588;-66
2023/12/10 02:39:26;;;;;;;;;4.50;1.25;;;;;12.40;79.12;100864.25;5055951;28;45384;-66
2023/12/10 02:41:52;;;;;;;;;2.25;0.75;;;;;12.36;79.01;100853.72;5040434;28;46208;-66
2023/12/10 02:44:17;;;;;;;;;4.25;1.75;;;;;12.30;78.93;100864.69;5040681;28;54598;-66
2023/12/10 02:46:47;;;;;;;;;2.25;2.25;;;;;12.32;78.96;100866.34;5039896;28;45379;-66
2023/12/10 02:49:12;;;;;;;;;1.00;1.00;;;;;12.29;79.30;100862.91;5040260;28;45237;-66
2023/12/10 02:51:38;;;;;;;;;9.00;2.00;;;;;12.28;79.16;100866.50;5039881;28;45998;-66
2023/12/10 02:54:03;;;;;;;;;2.50;1.75;;;;;12.31;79.53;100880.69;5033228;28;45313;-66
2023/12/10 02:56:28;;;;;;;;;2.25;1.00;;;;;12.17;79.06;100848.19;5057644;28;45909;-66
2023/12/10 02:58:54;;;;;;;;;2.00;1.75;;;;;12.16;79.34;100850.00;5059841;28;45399;-66
2023/12/10 03:01:19;;;;;;;;;1.75;1.75;;;;;12.34;79.32;100874.31;5035687;28;47503;-66
2023/12/10 03:03:44;;;;;;;;;2.00;1.00;;;;;12.33;79.28;100878.81;5051393;28;45278;-66
2023/12/10 03:06:10;;;;;;;;;2.25;1.25;;;;;12.34;79.41;100888.56;5041200;28;55167;-66
2023/12/10 03:08:35;;;;;;;;;2.00;1.75;;;;;12.30;79.25;100894.97;5033101;28;45466;-66
2023/12/10 03:11:01;;;;;;;;;2.25;1.00;;;;;12.25;78.90;100894.28;5055003;28;45622;-66
2023/12/10 03:13:26;;;;;;;;;1.75;1.25;;;;;12.24;79.45;100905.91;5039392;28;60966;-66
2023/12/10 03:15:51;;;;;;;;;4.00;2.00;;;;;12.25;79.36;100917.50;5034873;28;45406;-66
2023/12/10 03:18:17;;;;;;;;;1.00;1.00;;;;;12.21;79.29;100911.38;5039272;28;51703;-65
2023/12/10 03:20:42;;;;;;;;;5.00;1.50;;;;;12.14;79.48;100907.19;5052119;28;63578;-66
2023/12/10 03:23:07;;;;;;;;;3.50;1.00;;;;;12.26;79.74;100930.81;5039093;28;60784;-66
2023/12/10 03:25:32;;;;;;;;;1.50;1.50;;;;;12.20;79.50;100915.00;5039701;28;45786;-66
2023/12/10 03:27:58;;;;;;;;;4.25;2.00;;;;;12.15;80.36;100914.28;5058438;28;57726;-66
2023/12/10 03:30:23;;;;;;;;;3.00;1.00;;;;;12.26;79.85;100925.44;5032976;28;50117;-66
2023/12/10 03:32:48;;;;;;;;;4.00;2.00;;;;;12.15;79.84;100927.66;5054564;28;45478;-65
2023/12/10 03:35:14;;;;;;;;;5.00;2.00;;;;;12.23;79.94;100945.19;5042214;28;45328;-66
2023/12/10 03:37:39;;;;;;;;;4.50;1.25;;;;;12.22;80.21;100946.09;5032111;28;46022;-66
2023/12/10 03:40:05;;;;;;;;;6.25;1.00;;;;;12.03;80.05;100911.13;5054961;28;55118;-66
2023/12/10 03:42:30;;;;;;;;;2.50;1.25;;;;;12.25;80.03;100952.31;5044332;28;45434;-66
2023/12/10 03:44:56;;;;;;;;;4.25;2.75;;;;;12.28;80.16;100962.88;5053512;28;69084;-66
2023/12/10 03:47:21;;;;;;;;;3.75;1.25;;;;;12.28;80.31;100971.78;5049299;28;45391;-66
2023/12/10 03:49:46;;;;;;;;;4.75;2.50;;;;;12.28;80.32;100974.47;5023907;28;48517;-66
2023/12/10 03:52:13;;;;;;;;;1.25;1.25;;;;;12.20;80.30;100960.47;5041306;28;45329;-66
2023/12/10 03:54:38;;;;;;;;;4.00;2.00;;;;;12.29;80.34;100981.56;5037849;28;45346;-66
2023/12/10 03:57:04;;;;;;;;;4.50;1.25;;;;;12.33;80.42;100990.34;5045571;28;59700;-66
2023/12/10 03:59:29;;;;;;;;;6.00;2.00;;;;;12.28;80.29;100981.59;5057054;28;45351;-66
2023/12/10 04:01:54;;;;;;;;;2.25;1.00;;;;;12.31;80.11;100977.03;5049845;28;45225;-66
2023/12/10 04:04:20;;;;;;;;;2.50;1.00;;;;;12.26;80.05;100960.25;5038560;28;56416;-66
2023/12/10 04:06:45;;;;;;;;;5.00;2.50;;;;;12.16;80.34;100938.31;5030353;28;45490;-66
2023/12/10 04:09:10;;;;;;;;;1.00;1.00;;;;;12.17;80.38;100931.16;5056406;28;45271;-66
2023/12/10 04:11:36;;;;;;;;;1.75;1.25;;;;;12.31;80.23;100960.97;5029409;28;66867;-66
2023/12/10 04:14:02;;;;;;;;;2.00;2.00;;;;;12.14;80.29;100945.50;5037239;28;45439;-66
2023/12/10 04:16:29;;;;;;;;;3.00;2.00;;;;;12.32;80.46;100973.41;5038559;28;45324;-66
2023/12/10 04:18:55;;;;;;;;;2.00;0.50;;;;;12.32;80.08;100957.34;5024711;28;48295;-66
2023/12/10 04:21:21;;;;;;;;;2.00;2.00;;;;;12.27;80.39;100961.13;5030741;28;45360;-66
2023/12/10 04:23:47;;;;;;;;;6.75;3.75;;;;;12.28;80.57;100974.47;5037348;28;45437;-66
2023/12/10 04:26:12;;;;;;;;;1.75;1.00;;;;;12.27;80.34;100967.34;5035549;28;45548;-66
2023/12/10 04:28:38;;;;;;;;;2.25;1.00;;;;;12.27;80.44;100955.78;5055361;28;46272;-66
2023/12/10 04:31:04;;;;;;;;;1.25;1.25;;;;;12.21;80.33;100952.41;5054659;28;45467;-66
2023/12/10 04:33:30;;;;;;;;;4.00;1.00;;;;;12.23;80.63;100971.94;5020737;28;45360;-66
2023/12/10 04:35:55;;;;;;;;;2.25;1.00;;;;;12.29;80.54;100972.66;5048732;28;48526;-66
2023/12/10 04:38:21;;;;;;;;;4.25;1.25;;;;;12.22;80.36;100959.47;5040286;28;47230;-66
2023/12/10 04:40:46;;;;;;;;;3.75;2.00;;;;;12.14;80.49;100956.22;5058729;28;45576;-66
2023/12/10 04:43:11;;;;;;;;;6.50;3.00;;;;;12.17;80.45;100960.59;5050418;28;45505;-66
2023/12/10 04:45:37;;;;;;;;;3.50;0.50;;;;;12.19;80.57;100956.91;5038331;28;45478;-66
2023/12/10 04:48:02;;;;;;;;;3.50;2.75;;;;;12.26;80.72;100970.09;5033394;28;50733;-66
2023/12/10 04:50:27;;;;;;;;;2.75;2.00;;;;;12.26;80.82;100962.06;5029034;28;45406;-66
2023/12/10 04:52:53;;;;;;;;;4.50;2.00;;;;;12.28;80.34;100958.41;5056852;28;45363;-66
2023/12/10 04:55:18;;;;;;;;;2.00;1.00;;;;;12.13;80.46;100945.56;5028429;28;53848;-66
2023/12/10 04:57:43;;;;;;;;;3.25;1.75;;;;;12.18;80.49;100954.31;5054526;28;65312;-66
2023/12/10 05:00:09;;;;;;;;;4.50;2.00;;;;;12.25;80.44;100974.56;5039116;28;58084;-66
2023/12/10 05:02:34;;;;;;;;;3.25;1.00;;;;;12.26;80.43;100978.13;5040889;28;45400;-65
2023/12/10 05:04:59;;;;;;;;;4.00;3.00;;;;;12.14;80.57;100966.91;5072958;28;62025;-66
2023/12/10 05:07:25;;;;;;;;;1.50;0.25;;;;;12.18;80.50;100986.44;5043425;28;48622;-66
2023/12/10 05:09:50;;;;;;;;;9.50;2.50;;;;;12.20;80.72;100989.94;5042569;28;74345;-66
2023/12/10 05:12:15;;;;;;;;;3.25;2.50;;;;;12.19;80.68;101005.09;5061651;28;64470;-66
2023/12/10 05:14:41;;;;;;;;;2.00;2.00;;;;;12.12;80.77;100983.97;5053980;28;69584;-65
2023/12/10 05:17:06;;;;;;;;;2.75;2.00;;;;;12.22;80.82;100996.94;5045870;28;54118;-66
2023/12/10 05:19:31;;;;;;;;;4.50;1.00;;;;;12.15;81.00;100984.72;5049979;28;47371;-66
2023/12/10 05:21:56;;;;;;;;;4.75;1.00;;;;;12.23;80.66;101005.88;5045677;28;52872;-66
2023/12/10 05:24:22;;;;;;;;;2.75;2.00;;;;;12.17;80.68;100982.88;5032030;28;57106;-66
2023/12/10 05:26:47;;;;;;;;;1.75;1.75;;;;;12.26;81.20;100991.50;5060373;28;65673;-66
2023/12/10 05:29:12;;;;;;;;;2.00;1.00;;;;;12.25;80.53;100990.63;5060293;28;45221;-66
2023/12/10 05:31:37;;;;;;;;;1.00;0.00;;;;;12.19;80.76;100989.03;5040427;28;61285;-66
2023/12/10 05:34:03;;;;;;;;;4.00;2.00;;;;;12.19;80.90;100993.50;5040927;28;45376;-65
2023/12/10 05:36:28;;;;;;;;;3.50;1.75;;;;;12.26;80.60;101016.44;5067425;28;57852;-66
2023/12/10 05:38:53;;;;;;;;;3.00;2.00;;;;;12.17;80.78;101001.59;5070288;28;45260;-66
2023/12/10 05:41:19;;;;;;;;;2.00;1.00;;;;;12.25;80.53;101013.84;5045969;28;45379;-66
2023/12/10 05:43:44;;;;;;;;;2.00;1.00;;;;;12.17;80.75;101009.63;5052118;28;45294;-66
2023/12/10 05:46:09;;;;;;;;;4.75;1.00;;;;;12.23;80.89;101025.47;5040135;28;65880;-66
2023/12/10 05:48:34;;;;;;;;;2.00;0.75;;;;;12.22;80.70;101018.38;5041051;28;45456;-66
2023/12/10 05:51:00;;;;;;;;;1.25;1.00;;;;;12.19;81.00;101020.28;5040445;28;62458;-66
2023/12/10 05:53:25;;;;;;;;;2.50;1.00;;;;;12.24;80.84;101029.03;5041056;28;45300;-66
2023/12/10 05:55:50;;;;;;;;;3.00;1.50;;;;;12.23;80.70;101030.84;5040070;28;69221;-66
2023/12/10 05:58:16;;;;;;;;;5.00;1.00;;;;;12.21;80.98;101029.13;5046283;28;46893;-66
2023/12/10 06:00:41;;;;;;;;;3.00;1.00;;;;;12.22;81.01;101028.22;5050175;28;45240;-66
2023/12/10 06:03:06;;;;;;;;;2.00;2.00;;;;;12.16;80.82;101018.59;5038849;28;64642;-66
2023/12/10 06:05:32;;;;;;;;;8.00;2.75;;;;;12.24;80.68;101018.31;5049800;28;67789;-65
2023/12/10 06:07:57;;;;;;;;;4.50;1.00;;;;;12.28;80.57;101025.31;5054397;28;45420;-66
2023/12/10 06:10:22;;;;;;;;;3.25;1.00;;;;;12.21;80.49;101013.06;5040156;28;45299;-66
2023/12/10 06:12:49;;;;;;;;;4.00;2.00;;;;;12.26;80.71;101019.13;5042799;28;54811;-66
2023/12/10 06:15:15;;;;;;;;;2.00;1.00;;;;;12.26;81.01;101020.94;5040399;28;46949;-66
2023/12/10 06:17:40;;;;;;;;;2.50;2.00;;;;;12.23;80.69;101019.25;5042512;28;45293;-66
2023/12/10 06:20:08;;;;;;;;;5.50;4.00;;;;;12.32;80.65;101029.63;5040180;28;54761;-66
2023/12/10 06:22:33;;;;;;;;;2.50;2.00;;;;;12.24;80.43;101015.63;5053612;28;45433;-66
2023/12/10 06:24:58;;;;;;;;;2.50;1.50;;;;;12.20;80.14;101030.94;5040923;28;61413;-66
2023/12/10 06:27:24;;;;;;;;;2.75;1.00;;;;;12.15;80.48;101019.50;5065720;28;45308;-66
2023/12/10 06:29:49;;;;;;;;;3.50;1.50;;;;;12.15;80.70;101024.88;5028529;28;45250;-66
2023/12/10 06:32:15;;;;;;;;;2.75;1.75;;;;;12.15;80.78;101007.94;5027645;28;45546;-66
2023/12/10 06:34:40;;;;;;;;;7.75;1.75;;;;;12.27;80.71;101030.72;5048260;28;45451;-65
2023/12/10 06:37:06;;;;;;;;;5.50;2.50;;;;;12.14;80.63;101017.75;5040356;28;45348;-66
2023/12/10 06:39:31;;;;;;;;;4.00;3.00;;;;;12.20;80.71;101040.78;5056114;28;45367;-66
2023/12/10 06:41:56;;;;;;;;;3.00;2.00;;;;;12.19;80.71;101026.50;5028451;28;64001;-66
2023/12/10 06:44:22;;;;;;;;;2.50;1.00;;;;;12.23;80.78;101044.22;5060194;28;45457;-66
2023/12/10 06:46:48;;;;;;;;;4.50;1.50;;;;;12.14;80.82;101023.09;5039265;28;45276;-66
2023/12/10 06:49:14;;;;;;;;;4.00;2.75;;;;;12.15;80.81;101027.53;5060564;28;45427;-65
2023/12/10 06:51:39;;;;;;;;;1.75;1.00;;;;;12.20;80.62;101036.28;5038665;28;45573;-66
2023/12/10 06:54:04;;;;;;;;;3.25;2.50;;;;;12.16;80.56;101040.00;5022011;28;47124;-66
2023/12/10 06:56:29;;;;;;;;;4.00;2.00;;;;;12.13;81.03;101048.13;5055122;28;57344;-66
2023/12/10 06:58:55;;;;;;;;;2.00;1.00;;;;;12.20;80.83;101056.84;5046793;28;45412;-66
2023/12/10 07:01:20;;;;;;;;;4.75;2.00;;;;;12.19;81.07;101047.91;5039702;28;45474;-66
2023/12/10 07:03:45;;;;;;;;;5.00;3.00;;;;;12.20;80.90;101056.84;5040037;28;45281;-65
2023/12/10 07:06:11;;;;;;;;;2.75;1.25;;;;;12.16;80.81;101048.03;5039276;28;54784;-66
2023/12/10 07:08:36;;;;;;;;;4.00;2.00;;;;;12.09;81.09;101035.78;5039622;28;52815;-66
2023/12/10 07:11:04;;;;;;;;;4.75;2.75;;;;;12.15;81.00;101056.13;5038840;28;60414;-66
2023/12/10 07:13:30;;;;;;;;;3.25;2.00;;;;;12.16;80.67;101044.47;5050966;28;45415;-65
2023/12/10 07:15:56;;;;;;;;;4.50;4.25;;;;;12.07;81.05;101044.78;5042293;28;45332;-66
2023/12/10 07:18:21;;;;;;;;;3.25;1.00;;;;;12.14;81.06;101065.06;5025790;28;51021;-66
2023/12/10 07:20:47;;;;;;;;;6.50;2.00;;;;;12.11;81.10;101054.44;5045689;28;59071;-66
2023/12/10 07:23:12;;;;;;;;;4.50;2.75;;;;;12.16;80.87;101066.78;5046445;28;45543;-66
2023/12/10 07:25:37;;;;;;;;;7.75;3.00;;;;;12.10;81.13;101058.94;5051859;28;72056;-66
2023/12/10 07:28:03;;;;;;;;;4.50;3.00;;;;;12.16;81.20;101064.09;5037351;28;65860;-66
2023/12/10 07:30:29;;;;;;;;;3.75;1.50;;;;;12.15;81.20;101073.03;5057917;28;45451;-66
2023/12/10 07:32:56;;;;;;;;;8.00;3.75;;;;;12.01;81.22;101044.06;5025001;28;47458;-66
2023/12/10 07:35:22;;;;;;;;;4.25;2.00;;;;;12.08;81.18;101067.94;5058319;28;45627;-66
2023/12/10 07:37:47;;;;;;;;;3.50;2.00;;;;;12.18;81.30;101080.09;5059552;28;45300;-66
2023/12/10 07:40:13;;;;;;;;;7.75;3.75;;;;;12.14;81.58;101078.44;5037253;28;45506;-66
2023/12/10 07:42:38;;;;;;;;;5.50;4.00;;;;;12.17;81.45;101076.53;5041373;28;45496;-66
2023/12/10 07:45:04;;;;;;;;;5.50;5.00;;;;;12.10;81.37;101061.63;5052542;28;45452;-66
2023/12/10 07:47:29;;;;;;;;;4.25;3.25;;;;;12.20;81.46;101081.78;5049800;28;45295;-65
2023/12/10 07:49:54;;;;;;;;;5.00;3.00;;;;;12.20;81.58;101076.44;5040876;28;45712;-65
2023/12/10 07:52:20;;;;;;;;;6.00;2.00;;;;;12.23;81.52;101070.97;5056160;28;48736;-65
2023/12/10 07:54:45;;;;;;;;;6.00;3.00;;;;;12.22;81.45;101068.34;5041446;28;65067;-65
2023/12/10 07:57:10;;;;;;;;;3.75;2.75;;;;;12.22;81.90;101066.53;5039499;28;49165;-65
2023/12/10 07:59:36;;;;;;;;;1.50;1.50;;;;;12.22;81.41;101069.22;5042632;28;45456;-65
2023/12/10 08:02:01;;;;;;;;;4.50;3.00;;;;;12.15;81.41;101053.44;5048656;28;57520;-65
2023/12/10 08:04:26;;;;;;;;;2.75;2.75;;;;;12.15;81.58;101059.66;5056769;28;57655;-65
2023/12/10 08:06:52;;;;;;;;;2.50;1.50;;;;;12.12;81.52;101057.09;5059229;28;45370;-65
2023/12/10 08:09:17;;;;;;;;;2.75;2.75;;;;;12.11;81.70;101051.78;5036977;28;45725;-64
2023/12/10 08:11:42;;;;;;;;;7.75;3.00;;;;;12.12;81.52;101057.09;5040303;28;46219;-66
2023/12/10 08:14:09;;;;;;;;;7.25;3.75;;;;;12.13;81.65;101049.91;5063629;28;45374;-66
2023/12/10 08:16:34;;;;;;;;;6.25;2.25;;;;;12.17;82.03;101059.59;5038849;28;45414;-65
2023/12/10 08:19:00;;;;;;;;;4.75;3.25;;;;;12.10;81.74;101040.22;5039614;28;45431;-65
2023/12/10 08:21:25;;;;;;;;;8.25;5.00;;;;;12.13;81.92;101023.16;5026453;28;48097;-67
2023/12/10 08:23:51;;;;;;;;;3.00;3.00;;;;;12.21;81.90;101037.16;5043937;28;45533;-66
2023/12/10 08:26:16;;;;;;;;;6.00;4.00;;;;;12.22;81.77;101037.09;5034794;28;59245;-66
2023/12/10 08:28:42;;;;;;;;;5.00;3.00;;;;;12.23;81.97;101038.88;5042009;28;49973;-66
2023/12/10 08:31:07;;;;;;;;;3.75;3.50;;;;;12.25;81.84;101037.94;5046137;28;46106;-66
2023/12/10 08:33:32;;;;;;;;;4.00;2.75;;;;;12.28;81.65;101056.53;5034145;28;57896;-66
2023/12/10 08:35:58;;;;;;;;;6.75;4.25;;;;;12.22;81.68;101047.81;5051762;28;51326;-66
2023/12/10 08:38:23;;;;;;;;;3.75;3.00;;;;;12.30;82.02;101066.28;5055538;28;46999;-66
2023/12/10 08:40:48;;;;;;;;;10.25;3.00;;;;;12.28;81.79;101056.53;5052203;28;46127;-66
2023/12/10 08:43:14;;;;;;;;;4.00;4.00;;;;;12.27;81.65;101047.66;5025179;28;45323;-66
2023/12/10 08:45:39;;;;;;;;;4.00;1.25;;;;;12.23;81.79;101048.69;5024044;28;45502;-66
2023/12/10 08:48:05;;;;;;;;;3.50;3.25;;;;;12.21;81.99;101051.44;5044019;28;47652;-66
2023/12/10 08:50:30;;;;;;;;;3.25;2.25;;;;;12.27;82.16;101060.16;5043573;28;46021;-66
2023/12/10 08:52:55;;;;;;;;;8.50;3.00;;;;;12.28;82.13;101057.44;5042851;28;58826;-66
2023/12/10 08:55:21;;;;;;;;;8.75;5.00;;;;;12.20;82.14;101038.97;5042250;28;58727;-66
2023/12/10 08:57:46;;;;;;;;;5.25;2.75;;;;;12.33;82.20;101051.91;5037460;28;46150;-66
2023/12/10 09:00:12;;;;;;;;;5.25;3.50;;;;;12.33;82.24;101035.84;5041966;28;73301;-66
2023/12/10 09:02:37;;;;;;;;;11.00;7.00;;;;;12.35;82.34;101036.69;5059444;28;45489;-66
2023/12/10 09:05:02;;;;;;;;;6.00;2.25;;;;;12.34;82.26;101041.16;5043521;28;47035;-66
2023/12/10 09:07:29;;;;;;;;;3.50;3.00;;;;;12.38;82.23;101028.56;5039166;28;45628;-66
2023/12/10 09:09:59;;;;;;;;;4.25;4.00;;;;;12.34;82.52;101019.75;5042128;28;47332;-66
2023/12/10 09:12:24;;;;;;;;;4.25;3.75;;;;;12.36;82.26;101022.34;5045467;28;45340;-67
2023/12/10 09:14:50;;;;;;;;;5.00;3.00;;;;;12.34;82.27;101010.84;5060651;28;45327;-67
2023/12/10 09:17:15;;;;;;;;;8.00;3.00;;;;;12.36;82.52;101017.00;5027675;28;50659;-67
2023/12/10 09:19:40;;;;;;;;;5.25;3.25;;;;;12.31;82.51;101014.53;5059109;28;66712;-66
2023/12/10 09:22:06;;;;;;;;;4.00;3.75;;;;;12.33;82.57;101011.75;5056608;28;45477;-66
2023/12/10 09:24:31;;;;;;;;;4.00;2.00;;;;;12.39;82.79;101015.09;5041830;28;45477;-67
2023/12/10 09:26:56;;;;;;;;;7.00;2.00;;;;;12.41;82.67;101005.22;5055158;28;45505;-67
2023/12/10 09:29:22;;;;;;;;;6.00;3.00;;;;;12.29;82.53;100986.91;5046994;28;45916;-67
2023/12/10 09:31:47;;;;;;;;;3.50;3.00;;;;;12.37;82.64;100995.53;5045675;28;45426;-68
2023/12/10 09:34:12;;;;;;;;;4.00;2.75;;;;;12.31;82.96;100974.38;5037195;28;45506;-66
2023/12/10 09:36:38;;;;;;;;;5.25;3.50;;;;;12.34;82.99;100963.53;5024917;28;45542;-66
2023/12/10 09:39:03;;;;;;;;;6.00;4.00;;;;;12.40;82.85;100975.81;5040550;28;47270;-65
2023/12/10 09:41:28;;;;;;;;;7.50;4.00;;;;;12.40;83.26;100982.06;5035249;28;55793;-65
2023/12/10 09:43:54;;;;;;;;;5.25;3.00;;;;;12.39;82.90;100974.06;5042654;28;45431;-65
2023/12/10 09:46:21;;;;;;;;;3.50;2.25;;;;;12.40;82.98;100957.09;5036032;28;45528;-65
2023/12/10 09:48:48;;;;;;;;;3.75;2.50;;;;;12.38;82.88;100980.38;5024461;28;47643;-65
2023/12/10 09:51:13;;;;;;;;;7.00;3.75;;;;;12.41;82.91;100991.84;5054510;28;45277;-65
2023/12/10 09:53:39;;;;;;;;;5.00;4.00;;;;;12.43;83.13;100978.41;5026920;28;45341;-65
2023/12/10 09:56:04;;;;;;;;;3.75;2.75;;;;;12.41;83.24;100988.25;5054919;28;62839;-65
2023/12/10 09:58:30;;;;;;;;;5.75;4.00;;;;;12.46;83.23;100980.94;5050459;28;46010;-66
2023/12/10 10:00:55;;;;;;;;;5.25;3.50;;;;;12.44;83.26;100974.78;5035051;28;46021;-65
2023/12/10 10:03:20;;;;;;;;;5.25;2.00;;;;;12.46;83.29;100967.56;5044706;28;56703;-65
2023/12/10 10:05:46;;;;;;;;;5.75;3.00;;;;;12.47;83.33;100969.31;5046782;28;45430;-65
2023/12/10 10:08:11;;;;;;;;;6.25;3.00;;;;;12.37;83.15;100957.19;5050735;28;51362;-65
2023/12/10 10:10:37;;;;;;;;;6.75;3.75;;;;;12.38;83.36;100954.47;5044081;28;45393;-66
2023/12/10 10:13:05;;;;;;;;;4.75;3.50;;;;;12.45;83.42;100949.75;5048833;28;45384;-65
2023/12/10 10:15:30;;;;;;;;;3.00;3.00;;;;;12.47;83.40;100947.91;5057634;28;45470;-66
2023/12/10 10:17:57;;;;;;;;;7.00;4.00;;;;;12.53;83.19;100947.69;5048096;28;45548;-65
2023/12/10 10:20:24;;;;;;;;;10.50;4.50;;;;;12.48;83.01;100930.00;5058359;28;45602;-66
2023/12/10 10:22:54;;;;;;;;;6.50;3.25;;;;;12.54;83.02;100944.03;5041442;28;45372;-65
2023/12/10 10:25:20;;;;;;;;;7.00;3.00;;;;;12.54;82.98;100940.50;5062870;28;45475;-66
2023/12/10 10:27:45;;;;;;;;;3.00;2.00;;;;;12.48;83.25;100916.63;5054611;28;45604;-66
2023/12/10 10:30:11;;;;;;;;;6.00;4.00;;;;;12.52;83.13;100920.97;5036083;28;45319;-66
2023/12/10 10:32:37;;;;;;;;;7.00;4.00;;;;;12.55;83.24;100919.03;5052477;28;45406;-66
2023/12/10 10:35:04;;;;;;;;;3.50;1.75;;;;;12.54;83.34;100909.25;5048341;28;45439;-66
2023/12/10 10:37:30;;;;;;;;;2.00;2.00;;;;;12.65;83.05;100914.19;5039405;28;45586;-66
2023/12/10 10:39:56;;;;;;;;;5.50;3.00;;;;;12.64;82.44;100908.91;5027960;28;45439;-66
2023/12/10 10:42:22;;;;;;;;;5.00;2.00;;;;;12.63;82.54;100893.75;5051170;28;45517;-65
2023/12/10 10:44:47;;;;;;;;;6.00;3.25;;;;;12.60;82.52;100887.59;5043835;28;45540;-66
2023/12/10 10:47:13;;;;;;;;;7.50;4.00;;;;;12.62;82.37;100871.47;5029604;28;48494;-65
2023/12/10 10:49:46;;;;;;;;;2.50;2.00;;;;;12.62;82.41;100868.78;5051602;28;45565;-65
2023/12/10 10:52:16;;;;;;;;;8.50;4.75;;;;;12.60;82.55;100858.13;5054932;28;45442;-66
2023/12/10 10:54:42;;;;;;;;;5.50;3.00;;;;;12.59;82.50;100845.66;5043354;28;45565;-66
2023/12/10 10:57:08;;;;;;;;;2.50;2.00;;;;;12.55;82.66;100833.34;5037332;28;45600;-66
2023/12/10 10:59:34;;;;;;;;;4.25;2.00;;;;;12.66;82.39;100840.06;5051976;28;66316;-65
2023/12/10 11:02:00;;;;;;;;;3.00;2.00;;;;;12.70;82.46;100855.09;5055666;28;45470;-65
2023/12/10 11:04:37;;;;;;;;;3.00;2.00;;;;;12.72;82.43;100850.56;5054093;28;45486;-65
2023/12/10 11:07:03;;;;;;;;;3.75;2.25;;;;;12.68;82.17;100832.84;5038807;28;45542;-65
2023/12/10 11:09:31;;;;;;;;;5.75;3.00;;;;;12.69;81.94;100818.53;5031426;28;45657;-65
2023/12/10 11:11:57;;;;;;;;;4.75;2.00;;;;;12.77;81.81;100825.31;5028660;28;45546;-66
2023/12/10 11:14:23;;;;;;;;;6.00;4.00;;;;;12.76;82.52;100822.69;5033858;28;45525;-65
2023/12/10 11:16:50;;;;;;;;;4.50;2.00;;;;;12.82;81.83;100825.16;5034580;28;47097;-65